sensor_id;sensor_type;location;lat;lon;timestamp;P1;durP1;ratioP1;P2;durP2;ratioP2
3050;SDS011;1535;51.098;6.414;2023-05-18T00:01:57;12.53;;;12.03;;
3050;SDS011;1535;51.098;6.414;2023-05-18T00:04:24;13.20;;;12.70;;
3050;SDS011;1535;51.098;6.414;2023-05-18T00:06:52;12.90;;;12.40;;
3050;SDS011;1535;51.098;6.414;2023-05-18T00:09:22;12.33;;;11.83;;
3050;SDS011;1535;51.098;6.414;2023-05-18T00:11:49;12.40;;;11.90;;
3050;SDS011;1535;51.098;6.414;2023-05-18T00:14:18;12.40;;;11.90;;
3050;SDS011;1535;51.098;6.414;2023-05-18T00:16:45;12.50;;;12.00;;
3050;SDS011;1535;51.098;6.414;2023-05-18T00:19:12;13.10;;;12.60;;
3050;SDS011;1535;51.098;6.414;2023-05-18T00:21:40;12.20;;;11.70;;
3050;SDS011;1535;51.098;6.414;2023-05-18T00:24:07;12.40;;;11.90;;
3050;SDS011;1535;51.098;6.414;2023-05-18T00:26:36;12.40;;;11.90;;
3050;SDS011;1535;51.098;6.414;2023-05-18T00:29:03;11.70;;;11.27;;
3050;SDS011;1535;51.098;6.414;2023-05-18T00:31:33;12.53;;;12.03;;
3050;SDS011;1535;51.098;6.414;2023-05-18T00:34:03;11.73;;;11.33;;
3050;SDS011;1535;51.098;6.414;2023-05-18T00:36:30;12.60;;;12.10;;
3050;SDS011;1535;51.098;6.414;2023-05-18T00:38:57;12.60;;;12.10;;
3050;SDS011;1535;51.098;6.414;2023-05-18T00:41:24;13.23;;;12.57;;
3050;SDS011;1535;51.098;6.414;2023-05-18T00:43:52;12.30;;;11.80;;
3050;SDS011;1535;51.098;6.414;2023-05-18T00:46:20;12.60;;;12.10;;
3050;SDS011;1535;51.098;6.414;2023-05-18T00:48:49;12.70;;;12.20;;
3050;SDS011;1535;51.098;6.414;2023-05-18T00:51:16;12.70;;;12.20;;
3050;SDS011;1535;51.098;6.414;2023-05-18T00:53:45;12.53;;;12.03;;
3050;SDS011;1535;51.098;6.414;2023-05-18T00:56:12;12.30;;;11.80;;
3050;SDS011;1535;51.098;6.414;2023-05-18T00:58:40;12.30;;;11.80;;
3050;SDS011;1535;51.098;6.414;2023-05-18T01:01:07;11.57;;;11.17;;
3050;SDS011;1535;51.098;6.414;2023-05-18T01:03:35;11.80;;;11.40;;
3050;SDS011;1535;51.098;6.414;2023-05-18T01:06:04;11.50;;;11.10;;
3050;SDS011;1535;51.098;6.414;2023-05-18T01:08:31;12.00;;;11.60;;
3050;SDS011;1535;51.098;6.414;2023-05-18T01:11:03;11.70;;;11.30;;
3050;SDS011;1535;51.098;6.414;2023-05-18T01:13:34;11.80;;;11.40;;
3050;SDS011;1535;51.098;6.414;2023-05-18T01:16:08;11.27;;;10.87;;
3050;SDS011;1535;51.098;6.414;2023-05-18T01:18:44;12.40;;;11.90;;
3050;SDS011;1535;51.098;6.414;2023-05-18T01:21:22;11.80;;;11.40;;
3050;SDS011;1535;51.098;6.414;2023-05-18T01:24:10;11.50;;;11.10;;
3050;SDS011;1535;51.098;6.414;2023-05-18T01:26:51;11.40;;;11.00;;
3050;SDS011;1535;51.098;6.414;2023-05-18T01:29:22;10.93;;;10.53;;
3050;SDS011;1535;51.098;6.414;2023-05-18T01:31:52;11.50;;;11.10;;
3050;SDS011;1535;51.098;6.414;2023-05-18T01:34:18;11.80;;;11.30;;
3050;SDS011;1535;51.098;6.414;2023-05-18T01:36:45;11.50;;;11.10;;
3050;SDS011;1535;51.098;6.414;2023-05-18T01:39:12;11.60;;;11.20;;
3050;SDS011;1535;51.098;6.414;2023-05-18T01:41:40;11.37;;;10.97;;
3050;SDS011;1535;51.098;6.414;2023-05-18T01:44:16;11.90;;;11.50;;
3050;SDS011;1535;51.098;6.414;2023-05-18T01:46:48;11.60;;;11.20;;
3050;SDS011;1535;51.098;6.414;2023-05-18T01:49:34;11.60;;;11.20;;
3050;SDS011;1535;51.098;6.414;2023-05-18T01:52:05;12.20;;;11.70;;
3050;SDS011;1535;51.098;6.414;2023-05-18T01:54:34;11.87;;;11.47;;
3050;SDS011;1535;51.098;6.414;2023-05-18T01:57:04;11.17;;;10.77;;
3050;SDS011;1535;51.098;6.414;2023-05-18T01:59:35;11.60;;;11.20;;
3050;SDS011;1535;51.098;6.414;2023-05-18T02:02:03;11.63;;;11.23;;
3050;SDS011;1535;51.098;6.414;2023-05-18T02:04:30;11.50;;;11.10;;
3050;SDS011;1535;51.098;6.414;2023-05-18T02:06:59;11.60;;;11.20;;
3050;SDS011;1535;51.098;6.414;2023-05-18T02:09:27;11.77;;;11.37;;
3050;SDS011;1535;51.098;6.414;2023-05-18T02:11:54;11.73;;;11.33;;
3050;SDS011;1535;51.098;6.414;2023-05-18T02:14:21;11.50;;;11.10;;
3050;SDS011;1535;51.098;6.414;2023-05-18T02:16:49;11.50;;;11.10;;
3050;SDS011;1535;51.098;6.414;2023-05-18T02:19:16;11.10;;;10.70;;
3050;SDS011;1535;51.098;6.414;2023-05-18T02:21:43;11.23;;;10.83;;
3050;SDS011;1535;51.098;6.414;2023-05-18T02:24:11;11.10;;;10.70;;
3050;SDS011;1535;51.098;6.414;2023-05-18T02:26:38;11.33;;;10.93;;
3050;SDS011;1535;51.098;6.414;2023-05-18T02:29:05;10.90;;;10.50;;
3050;SDS011;1535;51.098;6.414;2023-05-18T02:31:35;11.00;;;10.60;;
3050;SDS011;1535;51.098;6.414;2023-05-18T02:34:05;12.03;;;11.43;;
3050;SDS011;1535;51.098;6.414;2023-05-18T02:36:33;10.40;;;10.00;;
3050;SDS011;1535;51.098;6.414;2023-05-18T02:39:04;10.47;;;10.07;;
3050;SDS011;1535;51.098;6.414;2023-05-18T02:41:31;10.70;;;10.30;;
3050;SDS011;1535;51.098;6.414;2023-05-18T02:43:58;10.73;;;10.33;;
3050;SDS011;1535;51.098;6.414;2023-05-18T02:46:26;11.47;;;11.07;;
3050;SDS011;1535;51.098;6.414;2023-05-18T02:48:53;11.40;;;11.00;;
3050;SDS011;1535;51.098;6.414;2023-05-18T02:51:21;11.30;;;10.90;;
3050;SDS011;1535;51.098;6.414;2023-05-18T02:53:50;10.80;;;10.40;;
3050;SDS011;1535;51.098;6.414;2023-05-18T02:56:18;10.87;;;10.47;;
3050;SDS011;1535;51.098;6.414;2023-05-18T02:58:44;10.50;;;10.10;;
3050;SDS011;1535;51.098;6.414;2023-05-18T03:01:11;10.43;;;10.03;;
3050;SDS011;1535;51.098;6.414;2023-05-18T03:03:39;10.70;;;10.30;;
3050;SDS011;1535;51.098;6.414;2023-05-18T03:06:07;10.93;;;10.47;;
3050;SDS011;1535;51.098;6.414;2023-05-18T03:08:35;10.00;;;9.70;;
3050;SDS011;1535;51.098;6.414;2023-05-18T03:11:02;10.40;;;10.00;;
3050;SDS011;1535;51.098;6.414;2023-05-18T03:13:29;9.80;;;9.50;;
3050;SDS011;1535;51.098;6.414;2023-05-18T03:15:57;9.90;;;9.60;;
3050;SDS011;1535;51.098;6.414;2023-05-18T03:18:23;10.13;;;9.73;;
3050;SDS011;1535;51.098;6.414;2023-05-18T03:20:50;10.03;;;9.70;;
3050;SDS011;1535;51.098;6.414;2023-05-18T03:23:17;9.93;;;9.63;;
3050;SDS011;1535;51.098;6.414;2023-05-18T03:25:46;9.90;;;9.60;;
3050;SDS011;1535;51.098;6.414;2023-05-18T03:28:17;9.80;;;9.50;;
3050;SDS011;1535;51.098;6.414;2023-05-18T03:30:45;9.47;;;9.17;;
3050;SDS011;1535;51.098;6.414;2023-05-18T03:33:13;9.40;;;9.10;;
3050;SDS011;1535;51.098;6.414;2023-05-18T03:35:40;10.13;;;9.73;;
3050;SDS011;1535;51.098;6.414;2023-05-18T03:38:07;10.23;;;9.83;;
3050;SDS011;1535;51.098;6.414;2023-05-18T03:40:34;10.30;;;9.90;;
3050;SDS011;1535;51.098;6.414;2023-05-18T03:43:03;9.90;;;9.60;;
3050;SDS011;1535;51.098;6.414;2023-05-18T03:45:30;9.73;;;9.43;;
3050;SDS011;1535;51.098;6.414;2023-05-18T03:47:56;10.30;;;9.90;;
3050;SDS011;1535;51.098;6.414;2023-05-18T03:50:25;9.70;;;9.40;;
3050;SDS011;1535;51.098;6.414;2023-05-18T03:52:52;9.63;;;9.33;;
3050;SDS011;1535;51.098;6.414;2023-05-18T03:55:19;9.77;;;9.47;;
3050;SDS011;1535;51.098;6.414;2023-05-18T03:57:49;9.77;;;9.47;;
3050;SDS011;1535;51.098;6.414;2023-05-18T04:00:20;10.30;;;9.90;;
3050;SDS011;1535;51.098;6.414;2023-05-18T04:02:47;9.93;;;9.60;;
3050;SDS011;1535;51.098;6.414;2023-05-18T04:05:15;9.67;;;9.37;;
3050;SDS011;1535;51.098;6.414;2023-05-18T04:07:43;9.70;;;9.40;;
3050;SDS011;1535;51.098;6.414;2023-05-18T04:10:11;9.60;;;9.30;;
3050;SDS011;1535;51.098;6.414;2023-05-18T04:12:41;10.60;;;10.10;;
3050;SDS011;1535;51.098;6.414;2023-05-18T04:15:08;10.07;;;9.67;;
3050;SDS011;1535;51.098;6.414;2023-05-18T04:17:39;9.30;;;9.00;;
3050;SDS011;1535;51.098;6.414;2023-05-18T04:20:09;9.20;;;8.90;;
3050;SDS011;1535;51.098;6.414;2023-05-18T04:22:40;8.90;;;8.60;;
3050;SDS011;1535;51.098;6.414;2023-05-18T04:25:10;9.53;;;9.23;;
3050;SDS011;1535;51.098;6.414;2023-05-18T04:27:38;9.00;;;8.70;;
3050;SDS011;1535;51.098;6.414;2023-05-18T04:30:06;8.93;;;8.63;;
3050;SDS011;1535;51.098;6.414;2023-05-18T04:32:35;9.00;;;8.70;;
3050;SDS011;1535;51.098;6.414;2023-05-18T04:35:05;8.60;;;8.30;;
3050;SDS011;1535;51.098;6.414;2023-05-18T04:37:33;8.70;;;8.40;;
3050;SDS011;1535;51.098;6.414;2023-05-18T04:40:05;9.27;;;8.63;;
3050;SDS011;1535;51.098;6.414;2023-05-18T04:42:37;9.47;;;9.07;;
3050;SDS011;1535;51.098;6.414;2023-05-18T04:45:10;9.10;;;8.80;;
3050;SDS011;1535;51.098;6.414;2023-05-18T04:47:41;10.10;;;9.63;;
3050;SDS011;1535;51.098;6.414;2023-05-18T04:50:12;8.60;;;8.30;;
3050;SDS011;1535;51.098;6.414;2023-05-18T04:52:42;9.20;;;8.90;;
3050;SDS011;1535;51.098;6.414;2023-05-18T04:55:13;9.30;;;9.00;;
3050;SDS011;1535;51.098;6.414;2023-05-18T04:57:46;9.10;;;8.80;;
3050;SDS011;1535;51.098;6.414;2023-05-18T05:00:15;11.70;;;11.10;;
3050;SDS011;1535;51.098;6.414;2023-05-18T05:02:42;9.73;;;9.17;;
3050;SDS011;1535;51.098;6.414;2023-05-18T05:05:12;9.53;;;9.03;;
3050;SDS011;1535;51.098;6.414;2023-05-18T05:07:38;9.67;;;9.37;;
3050;SDS011;1535;51.098;6.414;2023-05-18T05:10:06;8.90;;;8.60;;
3050;SDS011;1535;51.098;6.414;2023-05-18T05:12:34;10.30;;;9.90;;
3050;SDS011;1535;51.098;6.414;2023-05-18T05:15:01;9.93;;;9.53;;
3050;SDS011;1535;51.098;6.414;2023-05-18T05:17:29;11.53;;;10.80;;
3050;SDS011;1535;51.098;6.414;2023-05-18T05:19:56;9.47;;;9.17;;
3050;SDS011;1535;51.098;6.414;2023-05-18T05:22:24;10.23;;;9.83;;
3050;SDS011;1535;51.098;6.414;2023-05-18T05:24:52;10.10;;;9.70;;
3050;SDS011;1535;51.098;6.414;2023-05-18T05:27:19;11.07;;;10.47;;
3050;SDS011;1535;51.098;6.414;2023-05-18T05:29:47;12.23;;;11.73;;
3050;SDS011;1535;51.098;6.414;2023-05-18T05:32:15;12.37;;;11.77;;
3050;SDS011;1535;51.098;6.414;2023-05-18T05:34:42;11.47;;;10.97;;
3050;SDS011;1535;51.098;6.414;2023-05-18T05:37:11;10.87;;;10.47;;
3050;SDS011;1535;51.098;6.414;2023-05-18T05:39:40;10.80;;;10.40;;
3050;SDS011;1535;51.098;6.414;2023-05-18T05:42:07;11.40;;;10.90;;
3050;SDS011;1535;51.098;6.414;2023-05-18T05:44:35;11.27;;;10.87;;
3050;SDS011;1535;51.098;6.414;2023-05-18T05:47:03;12.13;;;11.53;;
3050;SDS011;1535;51.098;6.414;2023-05-18T05:49:30;12.90;;;12.00;;
3050;SDS011;1535;51.098;6.414;2023-05-18T05:51:56;10.97;;;10.57;;
3050;SDS011;1535;51.098;6.414;2023-05-18T05:54:23;12.10;;;11.60;;
3050;SDS011;1535;51.098;6.414;2023-05-18T05:56:51;12.93;;;12.43;;
3050;SDS011;1535;51.098;6.414;2023-05-18T05:59:18;11.47;;;10.87;;
3050;SDS011;1535;51.098;6.414;2023-05-18T06:01:46;13.57;;;12.40;;
3050;SDS011;1535;51.098;6.414;2023-05-18T06:04:13;11.60;;;11.10;;
3050;SDS011;1535;51.098;6.414;2023-05-18T06:06:40;14.20;;;13.33;;
3050;SDS011;1535;51.098;6.414;2023-05-18T06:09:08;13.40;;;12.90;;
3050;SDS011;1535;51.098;6.414;2023-05-18T06:11:34;12.47;;;11.97;;
3050;SDS011;1535;51.098;6.414;2023-05-18T06:14:03;16.50;;;15.70;;
3050;SDS011;1535;51.098;6.414;2023-05-18T06:16:30;12.60;;;12.10;;
3050;SDS011;1535;51.098;6.414;2023-05-18T06:18:57;12.70;;;12.20;;
3050;SDS011;1535;51.098;6.414;2023-05-18T06:21:24;15.60;;;14.20;;
3050;SDS011;1535;51.098;6.414;2023-05-18T06:23:51;13.60;;;12.63;;
3050;SDS011;1535;51.098;6.414;2023-05-18T06:26:18;13.70;;;13.10;;
3050;SDS011;1535;51.098;6.414;2023-05-18T06:28:46;13.37;;;12.87;;
3050;SDS011;1535;51.098;6.414;2023-05-18T06:31:14;12.03;;;11.53;;
3050;SDS011;1535;51.098;6.414;2023-05-18T06:33:42;13.97;;;13.27;;
3050;SDS011;1535;51.098;6.414;2023-05-18T06:36:10;12.57;;;12.07;;
3050;SDS011;1535;51.098;6.414;2023-05-18T06:38:36;14.10;;;13.10;;
3050;SDS011;1535;51.098;6.414;2023-05-18T06:41:03;12.70;;;12.20;;
3050;SDS011;1535;51.098;6.414;2023-05-18T06:43:31;12.60;;;12.10;;
3050;SDS011;1535;51.098;6.414;2023-05-18T06:45:57;13.40;;;12.90;;
3050;SDS011;1535;51.098;6.414;2023-05-18T06:48:27;13.50;;;12.93;;
3050;SDS011;1535;51.098;6.414;2023-05-18T06:50:54;12.63;;;12.13;;
3050;SDS011;1535;51.098;6.414;2023-05-18T06:53:21;12.90;;;12.40;;
3050;SDS011;1535;51.098;6.414;2023-05-18T06:55:48;12.90;;;12.40;;
3050;SDS011;1535;51.098;6.414;2023-05-18T06:58:15;13.33;;;12.83;;
3050;SDS011;1535;51.098;6.414;2023-05-18T07:00:42;14.50;;;13.90;;
3050;SDS011;1535;51.098;6.414;2023-05-18T07:03:10;13.43;;;12.83;;
3050;SDS011;1535;51.098;6.414;2023-05-18T07:05:38;12.97;;;12.47;;
3050;SDS011;1535;51.098;6.414;2023-05-18T07:08:05;12.73;;;12.23;;
3050;SDS011;1535;51.098;6.414;2023-05-18T07:10:34;14.97;;;14.17;;
3050;SDS011;1535;51.098;6.414;2023-05-18T07:13:01;13.97;;;13.37;;
3050;SDS011;1535;51.098;6.414;2023-05-18T07:15:28;13.70;;;13.20;;
3050;SDS011;1535;51.098;6.414;2023-05-18T07:17:55;13.47;;;12.97;;
3050;SDS011;1535;51.098;6.414;2023-05-18T07:20:22;13.60;;;13.10;;
3050;SDS011;1535;51.098;6.414;2023-05-18T07:22:51;14.20;;;13.60;;
3050;SDS011;1535;51.098;6.414;2023-05-18T07:25:19;13.80;;;13.20;;
3050;SDS011;1535;51.098;6.414;2023-05-18T07:27:46;13.10;;;12.60;;
3050;SDS011;1535;51.098;6.414;2023-05-18T07:30:12;14.60;;;13.73;;
3050;SDS011;1535;51.098;6.414;2023-05-18T07:32:39;13.23;;;12.73;;
3050;SDS011;1535;51.098;6.414;2023-05-18T07:35:09;12.87;;;12.37;;
3050;SDS011;1535;51.098;6.414;2023-05-18T07:37:36;14.60;;;13.90;;
3050;SDS011;1535;51.098;6.414;2023-05-18T07:40:04;13.80;;;13.20;;
3050;SDS011;1535;51.098;6.414;2023-05-18T07:42:33;17.67;;;16.30;;
3050;SDS011;1535;51.098;6.414;2023-05-18T07:45:00;14.00;;;13.40;;
3050;SDS011;1535;51.098;6.414;2023-05-18T07:47:27;13.27;;;12.77;;
3050;SDS011;1535;51.098;6.414;2023-05-18T07:49:54;13.80;;;13.20;;
3050;SDS011;1535;51.098;6.414;2023-05-18T07:52:21;48.57;;;14.43;;
3050;SDS011;1535;51.098;6.414;2023-05-18T07:54:48;13.90;;;13.30;;
3050;SDS011;1535;51.098;6.414;2023-05-18T07:57:16;26.00;;;15.63;;
3050;SDS011;1535;51.098;6.414;2023-05-18T07:59:43;15.03;;;13.90;;
3050;SDS011;1535;51.098;6.414;2023-05-18T08:02:11;16.20;;;15.20;;
3050;SDS011;1535;51.098;6.414;2023-05-18T08:04:37;14.10;;;13.50;;
3050;SDS011;1535;51.098;6.414;2023-05-18T08:07:05;14.90;;;14.30;;
3050;SDS011;1535;51.098;6.414;2023-05-18T08:09:33;14.33;;;13.70;;
3050;SDS011;1535;51.098;6.414;2023-05-18T08:12:00;14.67;;;14.07;;
3050;SDS011;1535;51.098;6.414;2023-05-18T08:14:28;14.07;;;13.47;;
3050;SDS011;1535;51.098;6.414;2023-05-18T08:16:55;13.30;;;12.80;;
3050;SDS011;1535;51.098;6.414;2023-05-18T08:19:21;14.60;;;13.70;;
3050;SDS011;1535;51.098;6.414;2023-05-18T08:21:50;14.07;;;13.47;;
3050;SDS011;1535;51.098;6.414;2023-05-18T08:24:16;14.07;;;13.47;;
3050;SDS011;1535;51.098;6.414;2023-05-18T08:26:43;14.87;;;14.03;;
3050;SDS011;1535;51.098;6.414;2023-05-18T08:29:10;14.97;;;14.07;;
3050;SDS011;1535;51.098;6.414;2023-05-18T08:31:39;14.00;;;13.40;;
3050;SDS011;1535;51.098;6.414;2023-05-18T08:34:06;13.20;;;12.70;;
3050;SDS011;1535;51.098;6.414;2023-05-18T08:36:33;13.70;;;13.10;;
3050;SDS011;1535;51.098;6.414;2023-05-18T08:39:01;67.43;;;14.70;;
3050;SDS011;1535;51.098;6.414;2023-05-18T08:41:31;14.20;;;13.60;;
3050;SDS011;1535;51.098;6.414;2023-05-18T08:44:01;13.60;;;13.10;;
3050;SDS011;1535;51.098;6.414;2023-05-18T08:46:31;14.00;;;13.40;;
3050;SDS011;1535;51.098;6.414;2023-05-18T08:49:01;13.80;;;13.20;;
3050;SDS011;1535;51.098;6.414;2023-05-18T08:51:32;13.67;;;13.07;;
3050;SDS011;1535;51.098;6.414;2023-05-18T08:54:00;14.70;;;14.00;;
3050;SDS011;1535;51.098;6.414;2023-05-18T08:56:30;14.07;;;13.47;;
3050;SDS011;1535;51.098;6.414;2023-05-18T08:58:59;13.00;;;12.50;;
3050;SDS011;1535;51.098;6.414;2023-05-18T09:01:31;14.40;;;13.70;;
3050;SDS011;1535;51.098;6.414;2023-05-18T09:04:01;13.90;;;13.30;;
3050;SDS011;1535;51.098;6.414;2023-05-18T09:06:28;13.80;;;13.20;;
3050;SDS011;1535;51.098;6.414;2023-05-18T09:08:58;14.67;;;14.07;;
3050;SDS011;1535;51.098;6.414;2023-05-18T09:11:28;13.53;;;12.97;;
3050;SDS011;1535;51.098;6.414;2023-05-18T09:13:57;14.93;;;14.07;;
3050;SDS011;1535;51.098;6.414;2023-05-18T09:16:25;15.20;;;14.20;;
3050;SDS011;1535;51.098;6.414;2023-05-18T09:18:52;13.40;;;12.80;;
3050;SDS011;1535;51.098;6.414;2023-05-18T09:21:21;13.23;;;12.73;;
3050;SDS011;1535;51.098;6.414;2023-05-18T09:23:49;12.97;;;12.47;;
3050;SDS011;1535;51.098;6.414;2023-05-18T09:26:17;13.00;;;12.50;;
3050;SDS011;1535;51.098;6.414;2023-05-18T09:28:46;13.67;;;13.07;;
3050;SDS011;1535;51.098;6.414;2023-05-18T09:31:18;13.80;;;13.20;;
3050;SDS011;1535;51.098;6.414;2023-05-18T09:33:46;12.90;;;12.40;;
3050;SDS011;1535;51.098;6.414;2023-05-18T09:36:14;13.40;;;12.80;;
3050;SDS011;1535;51.098;6.414;2023-05-18T09:38:44;13.43;;;12.93;;
3050;SDS011;1535;51.098;6.414;2023-05-18T09:41:12;13.80;;;12.60;;
3050;SDS011;1535;51.098;6.414;2023-05-18T09:43:41;14.10;;;13.30;;
3050;SDS011;1535;51.098;6.414;2023-05-18T09:46:10;13.63;;;13.03;;
3050;SDS011;1535;51.098;6.414;2023-05-18T09:48:40;14.77;;;13.67;;
3050;SDS011;1535;51.098;6.414;2023-05-18T09:51:09;14.57;;;13.77;;
3050;SDS011;1535;51.098;6.414;2023-05-18T09:53:38;14.40;;;13.80;;
3050;SDS011;1535;51.098;6.414;2023-05-18T09:56:07;14.77;;;13.87;;
3050;SDS011;1535;51.098;6.414;2023-05-18T09:58:36;13.27;;;12.77;;
3050;SDS011;1535;51.098;6.414;2023-05-18T10:01:05;13.60;;;13.00;;
3050;SDS011;1535;51.098;6.414;2023-05-18T10:03:32;14.07;;;13.43;;
3050;SDS011;1535;51.098;6.414;2023-05-18T10:06:02;13.60;;;13.00;;
3050;SDS011;1535;51.098;6.414;2023-05-18T10:08:31;13.67;;;13.07;;
3050;SDS011;1535;51.098;6.414;2023-05-18T10:10:58;14.47;;;13.77;;
3050;SDS011;1535;51.098;6.414;2023-05-18T10:13:28;13.13;;;12.63;;
3050;SDS011;1535;51.098;6.414;2023-05-18T10:15:57;14.53;;;13.53;;
3050;SDS011;1535;51.098;6.414;2023-05-18T10:18:26;13.57;;;12.97;;
3050;SDS011;1535;51.098;6.414;2023-05-18T10:20:55;13.40;;;12.90;;
3050;SDS011;1535;51.098;6.414;2023-05-18T10:23:23;14.00;;;13.40;;
3050;SDS011;1535;51.098;6.414;2023-05-18T10:25:52;14.33;;;13.73;;
3050;SDS011;1535;51.098;6.414;2023-05-18T10:28:19;13.70;;;13.10;;
3050;SDS011;1535;51.098;6.414;2023-05-18T10:30:51;13.50;;;13.00;;
3050;SDS011;1535;51.098;6.414;2023-05-18T10:33:21;13.90;;;13.30;;
3050;SDS011;1535;51.098;6.414;2023-05-18T10:35:50;15.40;;;14.40;;
3050;SDS011;1535;51.098;6.414;2023-05-18T10:38:18;14.03;;;13.33;;
3050;SDS011;1535;51.098;6.414;2023-05-18T10:40:47;13.50;;;12.90;;
3050;SDS011;1535;51.098;6.414;2023-05-18T10:43:17;13.10;;;12.60;;
3050;SDS011;1535;51.098;6.414;2023-05-18T10:45:46;13.30;;;12.77;;
3050;SDS011;1535;51.098;6.414;2023-05-18T10:48:15;13.83;;;13.23;;
3050;SDS011;1535;51.098;6.414;2023-05-18T10:50:44;13.80;;;13.20;;
3050;SDS011;1535;51.098;6.414;2023-05-18T10:53:13;15.33;;;14.40;;
3050;SDS011;1535;51.098;6.414;2023-05-18T10:55:42;14.40;;;13.70;;
3050;SDS011;1535;51.098;6.414;2023-05-18T10:58:09;14.23;;;13.63;;
3050;SDS011;1535;51.098;6.414;2023-05-18T11:00:39;14.53;;;13.57;;
3050;SDS011;1535;51.098;6.414;2023-05-18T11:03:07;15.07;;;14.27;;
3050;SDS011;1535;51.098;6.414;2023-05-18T11:05:39;13.20;;;12.60;;
3050;SDS011;1535;51.098;6.414;2023-05-18T11:08:07;13.13;;;12.60;;
3050;SDS011;1535;51.098;6.414;2023-05-18T11:10:34;13.10;;;12.60;;
3050;SDS011;1535;51.098;6.414;2023-05-18T11:13:06;13.83;;;13.23;;
3050;SDS011;1535;51.098;6.414;2023-05-18T11:18:36;14.47;;;13.77;;
3050;SDS011;1535;51.098;6.414;2023-05-18T11:21:17;14.17;;;13.47;;
3050;SDS011;1535;51.098;6.414;2023-05-18T11:26:47;13.50;;;12.90;;
3050;SDS011;1535;51.098;6.414;2023-05-18T11:29:17;15.60;;;14.50;;
3050;SDS011;1535;51.098;6.414;2023-05-18T11:31:46;13.90;;;13.30;;
3050;SDS011;1535;51.098;6.414;2023-05-18T11:37:10;14.67;;;13.77;;
3050;SDS011;1535;51.098;6.414;2023-05-18T11:39:37;13.90;;;13.20;;
3050;SDS011;1535;51.098;6.414;2023-05-18T11:42:07;13.63;;;13.03;;
3050;SDS011;1535;51.098;6.414;2023-05-18T11:44:35;15.63;;;14.73;;
3050;SDS011;1535;51.098;6.414;2023-05-18T11:47:04;14.80;;;14.00;;
3050;SDS011;1535;51.098;6.414;2023-05-18T11:49:35;14.50;;;13.70;;
3050;SDS011;1535;51.098;6.414;2023-05-18T11:52:04;13.70;;;13.10;;
3050;SDS011;1535;51.098;6.414;2023-05-18T11:54:33;13.20;;;12.60;;
3050;SDS011;1535;51.098;6.414;2023-05-18T11:57:04;14.00;;;13.40;;
3050;SDS011;1535;51.098;6.414;2023-05-18T11:59:32;14.07;;;13.33;;
3050;SDS011;1535;51.098;6.414;2023-05-18T12:02:01;14.57;;;13.33;;
3050;SDS011;1535;51.098;6.414;2023-05-18T12:04:29;13.63;;;13.03;;
3050;SDS011;1535;51.098;6.414;2023-05-18T12:06:57;13.40;;;12.90;;
3050;SDS011;1535;51.098;6.414;2023-05-18T12:09:25;14.13;;;13.53;;
3050;SDS011;1535;51.098;6.414;2023-05-18T12:11:57;14.23;;;13.53;;
3050;SDS011;1535;51.098;6.414;2023-05-18T12:14:23;14.30;;;13.70;;
3050;SDS011;1535;51.098;6.414;2023-05-18T12:16:52;15.00;;;14.20;;
3050;SDS011;1535;51.098;6.414;2023-05-18T12:19:19;14.57;;;13.83;;
3050;SDS011;1535;51.098;6.414;2023-05-18T12:21:47;16.37;;;15.10;;
3050;SDS011;1535;51.098;6.414;2023-05-18T12:24:14;13.70;;;13.10;;
3050;SDS011;1535;51.098;6.414;2023-05-18T12:26:41;14.53;;;13.63;;
3050;SDS011;1535;51.098;6.414;2023-05-18T12:29:12;13.60;;;13.03;;
3050;SDS011;1535;51.098;6.414;2023-05-18T12:31:44;14.10;;;13.50;;
3050;SDS011;1535;51.098;6.414;2023-05-18T12:34:12;13.30;;;12.77;;
3050;SDS011;1535;51.098;6.414;2023-05-18T12:36:40;13.80;;;13.10;;
3050;SDS011;1535;51.098;6.414;2023-05-18T12:39:08;14.33;;;13.73;;
3050;SDS011;1535;51.098;6.414;2023-05-18T12:41:39;14.33;;;13.47;;
3050;SDS011;1535;51.098;6.414;2023-05-18T12:44:06;12.60;;;12.10;;
3050;SDS011;1535;51.098;6.414;2023-05-18T12:46:34;14.20;;;13.60;;
3050;SDS011;1535;51.098;6.414;2023-05-18T12:49:02;15.00;;;14.30;;
3050;SDS011;1535;51.098;6.414;2023-05-18T12:51:32;17.30;;;13.20;;
3050;SDS011;1535;51.098;6.414;2023-05-18T12:54:00;13.00;;;12.50;;
3050;SDS011;1535;51.098;6.414;2023-05-18T12:59:16;13.07;;;12.57;;
3050;SDS011;1535;51.098;6.414;2023-05-18T13:01:44;14.00;;;13.40;;
3050;SDS011;1535;51.098;6.414;2023-05-18T13:04:11;13.60;;;13.10;;
3050;SDS011;1535;51.098;6.414;2023-05-18T13:06:38;13.03;;;12.53;;
3050;SDS011;1535;51.098;6.414;2023-05-18T13:09:06;14.80;;;14.20;;
3050;SDS011;1535;51.098;6.414;2023-05-18T13:11:34;15.10;;;14.10;;
3050;SDS011;1535;51.098;6.414;2023-05-18T13:14:02;14.20;;;13.40;;
3050;SDS011;1535;51.098;6.414;2023-05-18T13:16:30;13.73;;;13.13;;
3050;SDS011;1535;51.098;6.414;2023-05-18T13:19:00;14.87;;;13.50;;
3050;SDS011;1535;51.098;6.414;2023-05-18T13:21:29;13.87;;;13.33;;
3050;SDS011;1535;51.098;6.414;2023-05-18T13:23:56;14.40;;;13.50;;
3050;SDS011;1535;51.098;6.414;2023-05-18T13:26:23;14.60;;;13.90;;
3050;SDS011;1535;51.098;6.414;2023-05-18T13:28:51;15.23;;;14.63;;
3050;SDS011;1535;51.098;6.414;2023-05-18T13:31:19;19.13;;;15.23;;
3050;SDS011;1535;51.098;6.414;2023-05-18T13:33:47;15.13;;;14.20;;
3050;SDS011;1535;51.098;6.414;2023-05-18T13:36:17;13.97;;;13.37;;
3050;SDS011;1535;51.098;6.414;2023-05-18T13:38:45;13.90;;;13.30;;
3050;SDS011;1535;51.098;6.414;2023-05-18T13:41:12;14.30;;;13.70;;
3050;SDS011;1535;51.098;6.414;2023-05-18T13:43:39;14.40;;;13.80;;
3050;SDS011;1535;51.098;6.414;2023-05-18T13:46:06;13.83;;;13.30;;
3050;SDS011;1535;51.098;6.414;2023-05-18T13:48:33;14.30;;;13.70;;
3050;SDS011;1535;51.098;6.414;2023-05-18T13:51:00;14.57;;;13.97;;
3050;SDS011;1535;51.098;6.414;2023-05-18T13:53:28;13.93;;;13.40;;
3050;SDS011;1535;51.098;6.414;2023-05-18T13:55:55;14.37;;;13.60;;
3050;SDS011;1535;51.098;6.414;2023-05-18T13:58:21;14.17;;;13.60;;
3050;SDS011;1535;51.098;6.414;2023-05-18T14:00:48;15.83;;;15.23;;
3050;SDS011;1535;51.098;6.414;2023-05-18T14:03:17;14.43;;;13.43;;
3050;SDS011;1535;51.098;6.414;2023-05-18T14:05:44;14.40;;;13.70;;
3050;SDS011;1535;51.098;6.414;2023-05-18T14:08:12;15.27;;;14.40;;
3050;SDS011;1535;51.098;6.414;2023-05-18T14:10:42;14.20;;;13.60;;
3050;SDS011;1535;51.098;6.414;2023-05-18T14:13:10;13.80;;;13.20;;
3050;SDS011;1535;51.098;6.414;2023-05-18T14:15:38;15.17;;;14.50;;
3050;SDS011;1535;51.098;6.414;2023-05-18T14:18:04;14.33;;;13.63;;
3050;SDS011;1535;51.098;6.414;2023-05-18T14:20:32;14.30;;;13.50;;
3050;SDS011;1535;51.098;6.414;2023-05-18T14:23:01;14.50;;;13.87;;
3050;SDS011;1535;51.098;6.414;2023-05-18T14:25:28;13.60;;;13.10;;
3050;SDS011;1535;51.098;6.414;2023-05-18T14:27:57;14.00;;;13.40;;
3050;SDS011;1535;51.098;6.414;2023-05-18T14:30:24;13.63;;;13.13;;
3050;SDS011;1535;51.098;6.414;2023-05-18T14:32:51;15.60;;;14.10;;
3050;SDS011;1535;51.098;6.414;2023-05-18T14:35:18;15.07;;;14.37;;
3050;SDS011;1535;51.098;6.414;2023-05-18T14:37:45;15.50;;;14.60;;
3050;SDS011;1535;51.098;6.414;2023-05-18T14:40:12;13.93;;;13.43;;
3050;SDS011;1535;51.098;6.414;2023-05-18T14:42:39;13.70;;;13.00;;
3050;SDS011;1535;51.098;6.414;2023-05-18T14:45:08;13.90;;;13.40;;
3050;SDS011;1535;51.098;6.414;2023-05-18T14:47:35;14.87;;;14.17;;
3050;SDS011;1535;51.098;6.414;2023-05-18T14:50:02;14.17;;;13.67;;
3050;SDS011;1535;51.098;6.414;2023-05-18T14:52:29;14.97;;;14.27;;
3050;SDS011;1535;51.098;6.414;2023-05-18T14:54:56;15.47;;;14.77;;
3050;SDS011;1535;51.098;6.414;2023-05-18T14:57:23;15.67;;;14.97;;
3050;SDS011;1535;51.098;6.414;2023-05-18T14:59:50;14.40;;;13.80;;
3050;SDS011;1535;51.098;6.414;2023-05-18T15:02:18;13.67;;;13.17;;
3050;SDS011;1535;51.098;6.414;2023-05-18T15:04:45;14.67;;;14.03;;
3050;SDS011;1535;51.098;6.414;2023-05-18T15:07:11;15.50;;;14.40;;
3050;SDS011;1535;51.098;6.414;2023-05-18T15:09:38;14.43;;;13.83;;